Terminal Aerodrome Forecast
Issued by NWS Grand Rapids, MI

Home | Current Version | Previous Version | Text Only | Print | Product List | Glossary On
Versions: 1 2 3 4 5 6 7 8 9 10 11 12 13 14 15 16 17 18
000
FTUS43 KGRR 081436 AAB
TAFGRR
TAF AMD
KGRR 081436Z 0815/0912 28016G23KT 3SM -SHSN BLSN BKN015
      TEMPO 0815/0818 2SM -SN BKN009
     FM090100 30012KT 2SM -SHSN OVC015
     FM090800 31010KT 5SM -SHSN OVC025=

USA.gov is the U.S. government's official web portal to all federal, state and local government web resources and services.